»·PEaware :: N660PS KLAX-KSNA

N660PS :: KLAX-KSNA

FLIGHT INFORMATION

Flight Status: Arrived
Operator: Privately registered:
United States
More flights under this callsign
Pilot: Rani C. (23025)
Aircraft: Unknown
(DA40)
More flights by this aircraft type
Origin: KLAX Los Angeles Intl
United States
Destination: KSNA John Wayne-Orange Co
United States
More flights between these airports :: More routes between these airports
Route: +SLI8 SLI KSNA
File this flight plan on PilotEdge
Remarks: I6 rating
Altitude:
(Current/Filed)
4,000ft
Speed:
(Current/Filed)
120kts
Departed: 29-Aug-19 01:16 PM
Arrived: 29-Aug-19 01:58 PM
Distance/Time
Traveled:
31nm/0:42
Distance/Time
To Go:
Arrived

Flight Plot

Page will automatically refresh every two minutes.


Map Options




Map Legend


Flown Route
Filed Route
Departure Airport
Arrival Airport
Navaid (VOR, NDB)
Fix

Horizontal Profiles

Position Reports

Time Latitude Longitude Heading Altitude Ground
Speed
29-Aug-19 12:58 33.934961 -118.385989 268 98ft 0kts
29-Aug-19 12:59 33.934961 -118.385989 268 98ft 0kts
29-Aug-19 13:00 33.934961 -118.385989 268 98ft 0kts
29-Aug-19 13:01 33.934961 -118.385989 268 98ft 0kts
29-Aug-19 13:02 33.934961 -118.385989 268 98ft 0kts
29-Aug-19 13:03 33.934961 -118.385989 268 98ft 0kts
29-Aug-19 13:04 33.934961 -118.385989 268 98ft 0kts
29-Aug-19 13:05 33.934961 -118.385989 268 98ft 0kts
29-Aug-19 13:06 33.934961 -118.385989 268 98ft 0kts
29-Aug-19 13:07 33.934961 -118.385989 268 98ft 0kts
29-Aug-19 13:08 33.934961 -118.385989 268 98ft 0kts
29-Aug-19 13:09 33.934961 -118.385989 268 98ft 0kts
29-Aug-19 13:10 33.934961 -118.385989 268 98ft 0kts
29-Aug-19 13:11 33.934961 -118.385989 268 98ft 0kts
29-Aug-19 13:12 33.934964 -118.386000 301 98ft 0kts
29-Aug-19 13:12 33.935958 -118.384301 80 98ft 13kts
29-Aug-19 13:14 33.936424 -118.382804 10 95ft 0kts
29-Aug-19 13:15 33.936424 -118.382804 10 95ft 0kts
29-Aug-19 13:15 33.936960 -118.388551 265 226ft 67kts
29-Aug-19 13:17 33.934488 -118.417881 262 1716ft 81kts
29-Aug-19 13:17 33.932168 -118.439889 255 2662ft 80kts
29-Aug-19 13:18 33.914028 -118.455446 207 3702ft 80kts
29-Aug-19 13:20 33.886979 -118.474909 213 4033ft 115kts
29-Aug-19 13:20 33.863448 -118.493253 214 4031ft 122kts
29-Aug-19 13:21 33.832007 -118.505577 165 4000ft 131kts
29-Aug-19 13:22 33.804236 -118.477513 140 4039ft 128kts
29-Aug-19 13:23 33.777686 -118.447871 142 4049ft 129kts
29-Aug-19 13:24 33.750751 -118.417883 141 4037ft 131kts
29-Aug-19 13:25 33.723857 -118.387960 141 4039ft 132kts
29-Aug-19 13:26 33.696552 -118.358041 142 4030ft 132kts
29-Aug-19 13:27 33.669270 -118.328177 139 4011ft 133kts
29-Aug-19 13:28 33.643133 -118.296732 125 4003ft 134kts
29-Aug-19 13:29 33.656910 -118.259935 38 4038ft 137kts
29-Aug-19 13:30 33.679393 -118.222808 61 4030ft 137kts
29-Aug-19 13:31 33.699095 -118.182830 58 3998ft 138kts
29-Aug-19 13:32 33.718080 -118.143443 61 4028ft 136kts
29-Aug-19 13:33 33.736000 -118.103398 65 4028ft 134kts
29-Aug-19 13:34 33.754912 -118.064376 62 4018ft 134kts
29-Aug-19 13:35 33.773541 -118.025107 62 4018ft 135kts
29-Aug-19 13:36 33.792183 -117.985679 61 3999ft 136kts
29-Aug-19 13:37 33.810886 -117.946051 61 3997ft 135kts
29-Aug-19 13:38 33.829549 -117.906611 60 3996ft 135kts
29-Aug-19 13:39 33.849108 -117.867703 58 3995ft 135kts
29-Aug-19 13:40 33.869742 -117.829712 56 3994ft 135kts
29-Aug-19 13:41 33.884919 -117.788419 62 4000ft 136kts
29-Aug-19 13:42 33.903386 -117.748494 60 4003ft 136kts
29-Aug-19 13:43 33.922367 -117.709113 44 4007ft 136kts
29-Aug-19 13:44 33.954969 -117.687141 11 4026ft 132kts
29-Aug-19 13:45 33.967954 -117.711801 216 4002ft 121kts
29-Aug-19 13:46 33.935067 -117.706710 187 4011ft 121kts
29-Aug-19 13:47 33.904904 -117.722575 212 3811ft 116kts
29-Aug-19 13:48 33.877343 -117.740466 209 3388ft 108kts
29-Aug-19 13:49 33.852310 -117.756327 210 3395ft 97kts
29-Aug-19 13:50 33.825240 -117.773135 213 2968ft 115kts
29-Aug-19 13:51 33.797695 -117.791352 210 2549ft 105kts
29-Aug-19 13:52 33.775972 -117.805032 210 2217ft 85kts
29-Aug-19 13:53 33.754625 -117.818645 206 1716ft 88kts
29-Aug-19 13:54 33.732760 -117.832609 202 1210ft 89kts
29-Aug-19 13:55 33.711048 -117.846394 207 747ft 88kts
29-Aug-19 13:56 33.690753 -117.859339 209 296ft 73kts
29-Aug-19 13:57 33.675953 -117.868662 207 59ft 20kts
29-Aug-19 13:58 33.674979 -117.868712 169 59ft 0kts
29-Aug-19 13:59 33.674979 -117.868712 169 59ft 0kts
29-Aug-19 14:00 33.673761 -117.867258 123 59ft 14kts

Navigation Log

Ident Type
Flight plan parsing failed, navigation log unavailable